ディエゴガルシア島 の空港の天気 - METARとTAF

ディエゴガルシア基地 ( FJDG / NKW ) - ディエゴガルシア島
飛行場実況気象(Metar)
観測時間09/26 02:55 IOT (09/25 20:55 UTC)
風向・風速南南東 6m/s
視程10km以上
天気現象
少しの雲 雲底高度 610m
全天の4割程度の雲 雲底高度 1520m
全天の8割程度の雲 雲底高度 3050m
気温26.6℃
湿度91%
気圧1010.5hPa
METARFJDG 252055Z 15012KT 9999 FEW020 SCT050 BKN100 27/25 A2985 RMK SLP105 8/870 T02660250 57020
過去の天気等 Google飛行場航空写真 Wunderground天気予報

過去48時間のMETAR

飛行場予報(TAF)
発表時間: 9/25 23:14 IOT (9/25 17:14 UTC)
予報対象時間: 25日23時 IOT ~ 27日5時 IOT
風向・風速南東 6m/s 瞬間風速 9m/s
視程9000m
天気現象弱いしゅう雨
少しの雲 雲底高度 610m
全天の4割程度の雲 雲底高度 1520m
全天の8割程度の雲 雲底高度 6710m
TAF FJDG 251714Z 2517/2623 14012G18KT 9000 -SHRA FEW020 SCT050 BKN220 QNH2987INS TX31/2518Z TN25/2523Z FOR MIL USE ONLY